Blue River, Kentucky
Current Conditions -  °F | °C
As of 6:35 AM on Friday 21 Nov 2014 (Local Time) from KSJS Reporting Station
Clear Clear  
Wind Chill: 18°   Ceiling: Unl
Heat Index: 24°   Visibility: 10mi
Dew Point: 17°   Wind: 5mph
Humidity: 73%   Direction: 230°SW
Pressure: 30.41"   Gusts: NA
Location:  37.62°N, 82.84°W
Report Text: KSJS 211135Z AUTO 23004KT 10SM CLR M04/M08 A3041 RMK AO2 T10431085
Loading
Personal Weather Stations






























Interactive Weather Map New forecast layout! Learn more

10-Day Weather Forecast

Advertisements
Track Severe Weather on mobile